createdAt,value
2023-05-12T00:02:04.939Z,79.68
2023-05-12T00:04:32.520Z,79.55
2023-05-12T00:07:00.050Z,79.69
2023-05-12T00:09:27.540Z,79.75
2023-05-12T00:11:55.143Z,79.83
2023-05-12T00:14:22.662Z,79.62
2023-05-12T00:16:52.035Z,79.14
2023-05-12T00:19:21.418Z,79.17
2023-05-12T00:21:48.921Z,78.95
2023-05-12T00:24:16.438Z,78.44
2023-05-12T00:26:44.038Z,78.77
2023-05-12T00:29:11.749Z,78.67
2023-05-12T00:31:39.243Z,78.91
2023-05-12T00:34:06.886Z,79.08
2023-05-12T00:36:36.051Z,78.86
2023-05-12T00:39:04.552Z,78.96
2023-05-12T00:41:32.279Z,79.24
2023-05-12T00:43:59.880Z,79.33
2023-05-12T00:46:27.799Z,79.82
2023-05-12T00:48:55.360Z,79.84
2023-05-12T00:51:23.056Z,79.98
2023-05-12T00:53:51.929Z,80.13
2023-05-12T00:56:19.796Z,80.01
2023-05-12T00:58:47.708Z,80.29
2023-05-12T01:01:16.390Z,80.55
2023-05-12T01:03:45.625Z,80.90
2023-05-12T01:06:14.789Z,81.22
2023-05-12T01:08:42.406Z,81.08
2023-05-12T01:11:11.965Z,81.22
2023-05-12T01:13:41.145Z,81.20
2023-05-12T01:16:10.760Z,81.43
2023-05-12T01:18:39.180Z,81.62
2023-05-12T01:21:07.650Z,81.54
2023-05-12T01:23:37.593Z,81.54
2023-05-12T01:26:07.881Z,81.84
2023-05-12T01:28:37.340Z,82.05
2023-05-12T01:31:06.323Z,81.54
2023-05-12T01:33:35.942Z,81.41
2023-05-12T01:36:03.463Z,81.49
2023-05-12T01:38:31.121Z,81.36
2023-05-12T01:40:59.274Z,81.38
2023-05-12T01:43:28.123Z,82.53
2023-05-12T01:45:55.603Z,82.95
2023-05-12T01:48:23.374Z,82.66
2023-05-12T01:50:51.096Z,83.43
2023-05-12T01:53:21.556Z,83.20
2023-05-12T01:55:49.024Z,83.05
2023-05-12T01:58:17.125Z,82.13
2023-05-12T02:00:46.310Z,81.96
2023-05-12T02:03:18.073Z,81.85
2023-05-12T02:05:45.742Z,81.19
2023-05-12T02:08:13.227Z,80.80
2023-05-12T02:10:40.833Z,80.87
2023-05-12T02:13:08.631Z,80.85
2023-05-12T02:15:36.192Z,80.70
2023-05-12T02:18:05.475Z,81.31
2023-05-12T02:20:33.107Z,81.67
2023-05-12T02:23:02.107Z,82.36
2023-05-12T02:25:31.266Z,82.62
2023-05-12T02:27:58.766Z,81.85
2023-05-12T02:30:26.332Z,82.67
2023-05-12T02:32:53.824Z,82.80
2023-05-12T02:35:22.830Z,82.48
2023-05-12T02:37:50.346Z,82.48
2023-05-12T02:40:18.103Z,82.33
2023-05-12T02:42:45.777Z,81.48
2023-05-12T02:45:13.838Z,80.92
2023-05-12T02:47:41.873Z,80.82
2023-05-12T02:50:10.791Z,81.51
2023-05-12T02:52:39.679Z,81.99
2023-05-12T02:55:08.078Z,82.06
2023-05-12T02:57:35.560Z,82.55
2023-05-12T03:00:05.773Z,82.14
2023-05-12T03:02:36.249Z,81.77
2023-05-12T03:05:04.124Z,81.62
2023-05-12T03:07:31.843Z,81.88
2023-05-12T03:10:01.614Z,82.57
2023-05-12T03:12:29.548Z,83.17
2023-05-12T03:14:58.923Z,83.61
2023-05-12T03:17:27.248Z,83.62
2023-05-12T03:19:54.771Z,83.87
2023-05-12T03:22:22.473Z,83.99
2023-05-12T03:24:49.961Z,83.89
2023-05-12T03:27:18.840Z,83.16
2023-05-12T03:29:46.659Z,82.27
2023-05-12T03:32:14.221Z,82.03
2023-05-12T03:34:42.095Z,81.08
2023-05-12T03:37:09.706Z,82.17
2023-05-12T03:39:37.214Z,82.36
2023-05-12T03:42:05.169Z,81.88
2023-05-12T03:44:34.003Z,82.62
2023-05-12T03:47:01.704Z,82.34
2023-05-12T03:49:29.338Z,82.31
2023-05-12T03:51:56.887Z,82.31
2023-05-12T03:54:25.734Z,82.72
2023-05-12T03:56:53.290Z,83.15
2023-05-12T03:59:21.832Z,82.81
2023-05-12T04:01:50.897Z,82.76
2023-05-12T04:04:19.098Z,82.15
2023-05-12T04:06:46.597Z,82.05
2023-05-12T04:09:14.109Z,81.97
2023-05-12T04:11:41.601Z,83.22
2023-05-12T04:14:09.144Z,83.74
2023-05-12T04:16:37.761Z,83.72
2023-05-12T04:19:06.911Z,83.48
2023-05-12T04:21:36.291Z,83.17
2023-05-12T04:24:04.333Z,83.35
2023-05-12T04:26:37.533Z,82.63
2023-05-12T04:29:05.103Z,83.53
2023-05-12T04:31:32.688Z,83.85
2023-05-12T04:34:01.171Z,83.78
2023-05-12T04:36:32.073Z,83.44
2023-05-12T04:39:00.109Z,83.15
2023-05-12T04:41:27.790Z,82.91
2023-05-12T04:46:26.919Z,82.97
2023-05-12T04:48:54.707Z,83.35
2023-05-12T04:51:22.226Z,82.60
2023-05-12T04:53:51.128Z,82.70
2023-05-12T04:56:20.167Z,83.31
2023-05-12T04:58:47.848Z,82.73
2023-05-12T05:01:18.193Z,82.87
2023-05-12T05:03:45.867Z,82.92
2023-05-12T05:06:14.403Z,83.32
2023-05-12T05:08:43.043Z,83.14
2023-05-12T05:11:14.968Z,82.77
2023-05-12T05:13:43.327Z,82.34
2023-05-12T05:16:10.901Z,82.31
2023-05-12T05:18:41.724Z,82.41
2023-05-12T05:21:09.669Z,82.45
2023-05-12T05:23:37.317Z,82.56
2023-05-12T05:26:05.312Z,82.82
2023-05-12T05:28:34.224Z,82.68
2023-05-12T05:31:01.908Z,82.65
2023-05-12T05:33:29.722Z,82.48
2023-05-12T05:35:57.672Z,81.77
2023-05-12T05:38:25.223Z,82.03
2023-05-12T05:40:54.652Z,81.84
2023-05-12T05:43:24.197Z,81.85
2023-05-12T05:45:53.618Z,82.13
2023-05-12T05:48:22.371Z,81.66
2023-05-12T05:50:51.407Z,81.83
2023-05-12T05:53:19.554Z,81.60
2023-05-12T05:55:48.516Z,80.77
2023-05-12T05:58:16.361Z,81.51
2023-05-12T06:00:44.516Z,81.13
2023-05-12T06:03:13.558Z,81.14
2023-05-12T06:05:42.338Z,81.21
2023-05-12T06:08:13.018Z,80.56
2023-05-12T06:10:40.851Z,81.30
2023-05-12T06:13:08.468Z,81.16
2023-05-12T06:15:36.030Z,81.50
2023-05-12T06:18:03.629Z,80.74
2023-05-12T06:20:32.910Z,80.77
2023-05-12T06:23:00.474Z,80.12
2023-05-12T06:25:27.954Z,80.20
2023-05-12T06:27:55.571Z,79.93
2023-05-12T06:30:23.343Z,79.77
2023-05-12T06:32:50.884Z,79.10
2023-05-12T06:35:18.854Z,79.02
2023-05-12T06:37:49.735Z,78.71
2023-05-12T06:40:17.808Z,77.90
2023-05-12T06:42:45.369Z,77.68
2023-05-12T06:45:19.661Z,77.31
2023-05-12T06:47:47.501Z,76.81
2023-05-12T06:50:15.535Z,76.45
2023-05-12T06:52:43.028Z,75.61
2023-05-12T06:55:11.989Z,75.73
2023-05-12T06:57:39.581Z,75.96
2023-05-12T07:00:08.488Z,75.71
2023-05-12T07:02:36.032Z,75.15
2023-05-12T07:05:03.541Z,74.74
2023-05-12T07:07:31.123Z,74.21
2023-05-12T07:09:58.606Z,73.15
2023-05-12T07:12:27.525Z,72.39
2023-05-12T07:14:54.988Z,73.02
2023-05-12T07:17:22.665Z,71.28
2023-05-12T07:19:50.328Z,70.63
2023-05-12T07:22:17.886Z,69.93
2023-05-12T07:24:45.513Z,68.58
2023-05-12T07:27:13.079Z,67.33
2023-05-12T07:29:41.974Z,67.07
2023-05-12T07:32:09.486Z,64.15
2023-05-12T07:34:37.567Z,63.46
2023-05-12T07:37:06.694Z,62.95
2023-05-12T07:39:34.297Z,62.11
2023-05-12T07:42:01.768Z,61.45
2023-05-12T07:44:29.333Z,62.86
2023-05-12T07:46:58.189Z,62.28
2023-05-12T07:49:26.066Z,62.00
2023-05-12T07:51:53.577Z,61.13
2023-05-12T07:54:21.128Z,61.03
2023-05-12T07:56:48.714Z,60.13
2023-05-12T07:59:16.311Z,58.58
2023-05-12T08:01:43.959Z,58.67
2023-05-12T08:04:12.878Z,59.26
2023-05-12T08:06:40.796Z,57.17
2023-05-12T08:09:08.309Z,56.52
2023-05-12T08:11:35.872Z,57.25
2023-05-12T08:14:03.373Z,55.87
2023-05-12T08:16:30.951Z,56.28
2023-05-12T08:18:58.723Z,55.40
2023-05-12T08:21:28.667Z,55.86
2023-05-12T08:23:56.269Z,55.87
2023-05-12T08:26:24.851Z,56.05
2023-05-12T08:28:52.586Z,55.63
2023-05-12T08:31:20.850Z,55.69
2023-05-12T08:33:54.028Z,55.37
2023-05-12T08:36:28.480Z,53.86
2023-05-12T08:38:56.584Z,53.27
2023-05-12T08:41:29.813Z,52.22
2023-05-12T08:43:57.651Z,51.94
2023-05-12T08:46:26.768Z,52.19
2023-05-12T08:48:54.940Z,52.03
2023-05-12T08:51:23.393Z,51.42
2023-05-12T08:53:54.300Z,52.39
2023-05-12T08:58:56.425Z,52.81
2023-05-12T09:01:24.344Z,52.91
2023-05-12T09:03:52.795Z,53.88
2023-05-12T09:06:20.468Z,54.48
2023-05-12T09:08:47.997Z,54.61
2023-05-12T09:11:17.437Z,54.53
2023-05-12T09:13:51.522Z,55.14
2023-05-12T09:16:21.657Z,55.08
2023-05-12T09:18:51.674Z,56.03
2023-05-12T09:21:19.607Z,56.21
2023-05-12T09:23:56.884Z,56.09
2023-05-12T09:26:26.868Z,55.43
2023-05-12T09:28:55.896Z,55.82
2023-05-12T09:31:24.702Z,55.76
2023-05-12T09:33:52.830Z,56.14
2023-05-12T09:36:21.262Z,56.11
2023-05-12T09:38:59.683Z,56.03
2023-05-12T09:41:28.491Z,55.79
2023-05-12T09:43:56.465Z,55.37
2023-05-12T09:46:25.651Z,54.65
2023-05-12T09:48:56.471Z,54.82
2023-05-12T09:51:24.862Z,54.90
2023-05-12T09:53:52.881Z,54.11
2023-05-12T09:56:21.308Z,54.09
2023-05-12T09:58:50.921Z,54.82
2023-05-12T10:01:23.210Z,55.22
2023-05-12T10:03:53.835Z,54.46
2023-05-12T10:06:23.808Z,52.67
2023-05-12T10:08:54.619Z,50.92
2023-05-12T10:11:23.465Z,49.64
2023-05-12T10:13:53.220Z,48.88
2023-05-12T10:16:21.692Z,48.81
2023-05-12T10:18:49.685Z,48.16
2023-05-12T10:21:17.467Z,47.40
2023-05-12T10:23:45.639Z,48.62
2023-05-12T10:26:15.477Z,48.00
2023-05-12T10:28:43.311Z,47.93
2023-05-12T10:31:12.460Z,48.80
2023-05-12T10:33:39.993Z,48.48
2023-05-12T10:36:18.000Z,48.81
2023-05-12T10:38:49.735Z,47.67
2023-05-12T10:41:17.821Z,48.72
2023-05-12T10:43:49.439Z,48.88
2023-05-12T10:46:20.800Z,49.43
2023-05-12T10:48:54.899Z,49.26
2023-05-12T10:51:24.144Z,48.54
2023-05-12T10:53:58.431Z,48.17
2023-05-12T10:56:29.534Z,48.07
2023-05-12T10:59:08.393Z,47.71
2023-05-12T11:01:37.909Z,47.24
2023-05-12T11:04:17.300Z,47.21
2023-05-12T11:06:46.761Z,47.30
2023-05-12T11:09:15.725Z,47.73
2023-05-12T11:11:45.765Z,47.36
2023-05-12T11:14:13.581Z,46.76
2023-05-12T11:16:44.394Z,47.55
2023-05-12T11:19:12.495Z,47.00
2023-05-12T11:21:40.349Z,46.57
2023-05-12T11:24:12.961Z,46.63
2023-05-12T11:26:41.310Z,47.21
2023-05-12T11:29:08.821Z,46.28
2023-05-12T11:31:36.392Z,46.79
2023-05-12T11:34:12.740Z,45.59
2023-05-12T11:36:42.243Z,45.91
2023-05-12T11:39:14.524Z,45.91
2023-05-12T11:41:41.989Z,45.39
2023-05-12T11:44:16.721Z,43.15
2023-05-12T11:46:55.336Z,41.26
2023-05-12T11:49:24.274Z,41.20
2023-05-12T11:51:53.429Z,37.96
2023-05-12T11:54:21.193Z,36.72
2023-05-12T11:56:49.297Z,36.59
2023-05-12T11:59:27.275Z,36.37
2023-05-12T12:01:55.009Z,35.97
2023-05-12T12:04:34.416Z,35.96
2023-05-12T12:07:02.163Z,37.45
2023-05-12T12:09:34.047Z,37.78
2023-05-12T12:12:02.247Z,38.31
2023-05-12T12:14:31.337Z,37.07
2023-05-12T12:16:58.857Z,37.92
2023-05-12T12:19:27.715Z,38.11
2023-05-12T12:21:56.802Z,38.58
2023-05-12T12:24:24.402Z,37.15
2023-05-12T12:26:52.150Z,37.16
2023-05-12T12:29:19.759Z,36.92
2023-05-12T12:31:47.289Z,37.01
2023-05-12T12:34:14.831Z,36.94
2023-05-12T12:36:42.614Z,36.83
2023-05-12T12:39:11.447Z,36.20
2023-05-12T12:41:38.961Z,37.40
2023-05-12T12:44:07.103Z,37.13
2023-05-12T12:46:34.693Z,37.19
2023-05-12T12:49:02.196Z,37.79
2023-05-12T12:51:44.462Z,38.73
2023-05-12T12:54:14.923Z,39.34
2023-05-12T12:56:42.783Z,39.65
2023-05-12T12:59:10.335Z,40.13
2023-05-12T13:01:37.864Z,40.37
2023-05-12T13:04:05.630Z,40.17
2023-05-12T13:06:33.224Z,39.70
2023-05-12T13:09:00.769Z,39.49
2023-05-12T13:11:29.614Z,40.10
2023-05-12T13:13:57.116Z,40.12
2023-05-12T13:16:24.623Z,40.40
2023-05-12T13:18:52.204Z,40.62
2023-05-12T13:21:19.801Z,40.54
2023-05-12T13:23:47.297Z,40.98
2023-05-12T13:26:14.831Z,41.12
2023-05-12T13:28:44.092Z,40.89
2023-05-12T13:31:11.635Z,40.97
2023-05-12T13:33:39.251Z,41.21
2023-05-12T13:36:07.591Z,41.06
2023-05-12T13:38:35.179Z,39.48
2023-05-12T13:41:03.201Z,39.41
2023-05-12T13:43:30.725Z,39.30
2023-05-12T13:45:59.562Z,39.78
2023-05-12T13:48:27.117Z,39.46
2023-05-12T13:50:54.783Z,38.39
2023-05-12T13:53:22.290Z,38.62
2023-05-12T13:55:49.794Z,38.48
2023-05-12T13:58:17.502Z,38.55
2023-05-12T14:00:45.105Z,39.01
2023-05-12T14:03:13.953Z,39.22
2023-05-12T14:05:41.518Z,41.35
2023-05-12T14:08:09.204Z,42.30
2023-05-12T14:10:36.744Z,42.40
2023-05-12T14:13:09.038Z,42.96
2023-05-12T14:15:48.045Z,43.21
2023-05-12T14:18:18.421Z,43.01
2023-05-12T14:20:46.160Z,43.18
2023-05-12T14:23:13.918Z,43.21
2023-05-12T14:25:41.467Z,43.66
2023-05-12T14:28:09.356Z,43.36
2023-05-12T14:30:38.516Z,42.40
2023-05-12T14:33:06.469Z,42.25
2023-05-12T14:35:35.501Z,42.26
2023-05-12T14:38:03.081Z,42.05
2023-05-12T14:40:30.665Z,42.83
2023-05-12T14:42:58.455Z,42.89
2023-05-12T14:45:26.535Z,42.30
2023-05-12T14:47:54.558Z,41.72
2023-05-12T14:50:22.400Z,41.28
2023-05-12T14:52:51.389Z,40.73
2023-05-12T14:55:19.153Z,40.20
2023-05-12T14:57:47.868Z,39.67
2023-05-12T15:00:16.409Z,38.33
2023-05-12T15:02:45.061Z,38.20
2023-05-12T15:05:13.714Z,38.97
2023-05-12T15:07:41.250Z,37.68
2023-05-12T15:10:11.154Z,37.37
2023-05-12T15:12:39.224Z,36.66
2023-05-12T15:15:08.840Z,36.37
2023-05-12T15:17:36.471Z,36.56
2023-05-12T15:20:04.477Z,37.29
2023-05-12T15:22:32.268Z,37.56
2023-05-12T15:25:00.293Z,36.99
2023-05-12T15:27:29.196Z,37.19
2023-05-12T15:29:56.670Z,37.21
2023-05-12T15:32:24.196Z,35.89
2023-05-12T15:34:51.725Z,36.22
2023-05-12T15:37:19.231Z,35.81
2023-05-12T15:39:46.707Z,36.21
2023-05-12T15:42:16.730Z,36.58
2023-05-12T15:44:48.288Z,37.30
2023-05-12T15:47:15.798Z,37.69
2023-05-12T15:49:43.288Z,37.98
2023-05-12T15:52:11.429Z,37.92
2023-05-12T15:54:39.413Z,37.92
2023-05-12T15:57:06.955Z,38.03
2023-05-12T15:59:34.450Z,37.64
2023-05-12T16:02:03.341Z,37.54
2023-05-12T16:04:30.881Z,37.62
2023-05-12T16:06:58.424Z,36.94
2023-05-12T16:09:26.489Z,37.03
2023-05-12T16:11:54.853Z,37.07
2023-05-12T16:14:25.437Z,37.17
2023-05-12T16:16:53.012Z,37.10
2023-05-12T16:19:21.846Z,37.09
2023-05-12T16:21:49.413Z,37.45
2023-05-12T16:24:17.599Z,37.68
2023-05-12T16:26:45.272Z,37.53
2023-05-12T16:29:13.727Z,37.38
2023-05-12T16:31:41.316Z,37.02
2023-05-12T16:34:08.842Z,37.25
2023-05-12T16:36:38.139Z,36.76
2023-05-12T16:39:07.530Z,37.29
2023-05-12T16:41:35.170Z,37.03
2023-05-12T16:44:02.781Z,36.79
2023-05-12T16:46:32.564Z,36.36
2023-05-12T16:49:00.137Z,36.71
2023-05-12T16:51:30.441Z,36.77
2023-05-12T16:53:59.301Z,37.11
2023-05-12T16:56:28.113Z,37.32
2023-05-12T16:58:55.640Z,37.32
2023-05-12T17:01:23.466Z,39.43
2023-05-12T17:03:51.191Z,41.27
2023-05-12T17:06:18.890Z,42.14
2023-05-12T17:08:46.387Z,43.21
2023-05-12T17:11:15.163Z,43.98
2023-05-12T17:13:42.877Z,45.24
2023-05-12T17:16:10.372Z,46.21
2023-05-12T17:21:09.054Z,47.34
2023-05-12T17:23:36.602Z,48.08
2023-05-12T17:26:04.222Z,49.10
2023-05-12T17:28:33.315Z,51.68
2023-05-12T17:31:01.343Z,52.30
2023-05-12T17:33:29.454Z,52.15
2023-05-12T17:36:10.974Z,53.20
2023-05-12T17:38:40.404Z,52.37
2023-05-12T17:41:07.932Z,52.95
2023-05-12T17:43:36.857Z,52.98
2023-05-12T17:46:04.867Z,52.68
2023-05-12T17:48:33.325Z,52.74
2023-05-12T17:51:01.341Z,53.76
2023-05-12T17:53:28.856Z,54.37
2023-05-12T17:55:56.643Z,53.38
2023-05-12T17:58:24.298Z,53.60
2023-05-12T18:00:53.516Z,53.02
2023-05-12T18:03:23.493Z,52.73
2023-05-12T18:05:52.637Z,53.70
2023-05-12T18:08:20.186Z,54.06
2023-05-12T18:10:47.970Z,55.14
2023-05-12T18:13:15.959Z,54.57
2023-05-12T18:15:43.942Z,52.55
2023-05-12T18:18:14.398Z,53.14
2023-05-12T18:20:42.296Z,53.94
2023-05-12T18:23:09.853Z,54.47
2023-05-12T18:25:37.365Z,54.75
2023-05-12T18:28:06.489Z,56.12
2023-05-12T18:30:34.089Z,55.90
2023-05-12T18:33:01.584Z,57.65
2023-05-12T18:35:30.818Z,59.31
2023-05-12T18:37:58.458Z,60.42
2023-05-12T18:40:26.252Z,61.78
2023-05-12T18:42:53.794Z,63.12
2023-05-12T18:45:22.811Z,63.58
2023-05-12T18:47:50.486Z,63.28
2023-05-12T18:50:18.064Z,63.58
2023-05-12T18:52:46.910Z,63.61
2023-05-12T18:55:15.222Z,64.22
2023-05-12T18:57:42.721Z,63.90
2023-05-12T19:00:11.177Z,63.21
2023-05-12T19:02:38.745Z,63.13
2023-05-12T19:05:07.380Z,63.27
2023-05-12T19:07:34.898Z,63.36
2023-05-12T19:10:03.760Z,63.14
2023-05-12T19:12:31.648Z,63.33
2023-05-12T19:14:59.517Z,63.27
2023-05-12T19:17:27.064Z,63.50
2023-05-12T19:19:54.605Z,62.78
2023-05-12T19:22:23.459Z,63.32
2023-05-12T19:24:51.588Z,63.03
2023-05-12T19:27:20.625Z,62.99
2023-05-12T19:29:48.496Z,63.35
2023-05-12T19:32:16.969Z,63.95
2023-05-12T19:34:44.599Z,64.78
2023-05-12T19:37:12.076Z,64.13
2023-05-12T19:39:39.598Z,63.39
2023-05-12T19:42:07.620Z,63.47
2023-05-12T19:44:36.731Z,63.35
2023-05-12T19:47:05.001Z,62.43
2023-05-12T19:49:34.118Z,62.52
2023-05-12T19:52:01.833Z,62.37
2023-05-12T19:54:29.498Z,62.63
2023-05-12T19:56:57.093Z,62.72
2023-05-12T19:59:24.762Z,62.79
2023-05-12T20:01:53.636Z,62.58
2023-05-12T20:04:21.455Z,62.93
2023-05-12T20:06:48.956Z,63.32
2023-05-12T20:09:16.501Z,63.36
2023-05-12T20:11:43.989Z,63.95
2023-05-12T20:14:11.463Z,63.54
2023-05-12T20:16:39.187Z,63.80
2023-05-12T20:19:08.141Z,64.08
2023-05-12T20:21:35.830Z,64.32
2023-05-12T20:24:03.341Z,65.09
2023-05-12T20:26:31.130Z,65.02
2023-05-12T20:28:59.500Z,65.50
2023-05-12T20:31:27.430Z,66.14
2023-05-12T20:33:55.772Z,65.94
2023-05-12T20:36:24.619Z,66.44
2023-05-12T20:38:52.173Z,66.44
2023-05-12T20:41:19.673Z,66.71
2023-05-12T20:43:47.701Z,67.13
2023-05-12T20:46:15.327Z,66.73
2023-05-12T20:48:42.897Z,67.13
2023-05-12T20:51:11.421Z,67.06
2023-05-12T20:53:40.489Z,68.04
2023-05-12T20:56:08.644Z,67.98
2023-05-12T20:58:36.460Z,68.37
2023-05-12T21:01:04.161Z,68.71
2023-05-12T21:03:31.753Z,68.66
2023-05-12T21:05:59.965Z,69.70
2023-05-12T21:08:27.515Z,69.40
2023-05-12T21:10:56.462Z,69.21
2023-05-12T21:13:24.035Z,69.62
2023-05-12T21:15:51.543Z,69.82
2023-05-12T21:18:19.044Z,69.75
2023-05-12T21:20:46.571Z,69.95
2023-05-12T21:23:14.088Z,69.74
2023-05-12T21:25:41.557Z,69.86
2023-05-12T21:28:10.378Z,70.46
2023-05-12T21:30:37.865Z,70.13
2023-05-12T21:33:05.722Z,70.63
2023-05-12T21:35:33.324Z,71.64
2023-05-12T21:38:00.900Z,72.23
2023-05-12T21:40:29.092Z,72.33
2023-05-12T21:42:56.594Z,72.36
2023-05-12T21:45:26.044Z,72.09
2023-05-12T21:47:53.726Z,71.88
2023-05-12T21:50:21.984Z,71.92
2023-05-12T21:52:50.138Z,72.12
2023-05-12T21:55:17.761Z,71.94
2023-05-12T21:57:45.353Z,72.35
2023-05-12T22:00:14.999Z,72.05
2023-05-12T22:02:44.688Z,72.41
2023-05-12T22:05:12.235Z,71.96
2023-05-12T22:07:39.718Z,71.72
2023-05-12T22:10:07.930Z,71.16
2023-05-12T22:12:35.392Z,71.59
2023-05-12T22:15:02.920Z,71.34
2023-05-12T22:17:30.579Z,71.35
2023-05-12T22:19:59.436Z,71.04
2023-05-12T22:22:27.001Z,70.68
2023-05-12T22:24:54.546Z,71.39
2023-05-12T22:27:22.411Z,71.55
2023-05-12T22:29:50.084Z,71.56
2023-05-12T22:32:17.585Z,71.35
2023-05-12T22:34:45.053Z,71.35
2023-05-12T22:37:13.897Z,71.44
2023-05-12T22:39:41.427Z,71.15
2023-05-12T22:42:09.017Z,70.24
2023-05-12T22:44:36.601Z,70.25
2023-05-12T22:47:04.126Z,70.55
2023-05-12T22:49:31.649Z,70.21
2023-05-12T22:51:59.995Z,70.55
2023-05-12T22:54:28.821Z,70.49
2023-05-12T22:56:56.486Z,70.56
2023-05-12T22:59:24.020Z,70.50
2023-05-12T23:01:51.526Z,70.00
2023-05-12T23:04:19.166Z,70.70
2023-05-12T23:06:46.711Z,70.88
2023-05-12T23:09:14.562Z,70.91
2023-05-12T23:11:43.316Z,70.62
2023-05-12T23:14:11.339Z,70.60
2023-05-12T23:16:38.994Z,70.33
2023-05-12T23:19:06.622Z,70.82
2023-05-12T23:21:34.085Z,70.68
2023-05-12T23:24:01.729Z,70.66
2023-05-12T23:26:29.240Z,70.45
2023-05-12T23:28:58.324Z,70.06
2023-05-12T23:31:25.949Z,69.83
2023-05-12T23:33:53.582Z,69.75
2023-05-12T23:36:22.181Z,69.60
2023-05-12T23:38:53.620Z,69.29
2023-05-12T23:41:21.895Z,69.00
2023-05-12T23:43:49.399Z,68.36
2023-05-12T23:46:18.289Z,69.14
2023-05-12T23:48:45.843Z,68.43
2023-05-12T23:51:13.299Z,68.63
2023-05-12T23:53:40.810Z,69.09
2023-05-12T23:56:09.019Z,69.20
2023-05-12T23:58:36.489Z,69.72
